sensor_id;sensor_type;location;lat;lon;timestamp;P1;durP1;ratioP1;P2;durP2;ratioP2
79130;SDS011;68530;45.194;9.142;2023-03-12T00:02:00;3.78;;;2.00;;
79130;SDS011;68530;45.194;9.142;2023-03-12T00:04:26;5.38;;;1.98;;
79130;SDS011;68530;45.194;9.142;2023-03-12T00:06:51;6.30;;;2.10;;
79130;SDS011;68530;45.194;9.142;2023-03-12T00:09:17;4.93;;;2.00;;
79130;SDS011;68530;45.194;9.142;2023-03-12T00:11:42;4.10;;;2.07;;
79130;SDS011;68530;45.194;9.142;2023-03-12T00:14:07;8.57;;;2.50;;
79130;SDS011;68530;45.194;9.142;2023-03-12T00:16:32;5.63;;;2.33;;
79130;SDS011;68530;45.194;9.142;2023-03-12T00:18:58;4.57;;;2.10;;
79130;SDS011;68530;45.194;9.142;2023-03-12T00:21:23;4.90;;;2.30;;
79130;SDS011;68530;45.194;9.142;2023-03-12T00:23:48;4.70;;;2.40;;
79130;SDS011;68530;45.194;9.142;2023-03-12T00:26:14;5.10;;;2.17;;
79130;SDS011;68530;45.194;9.142;2023-03-12T00:28:40;4.47;;;2.38;;
79130;SDS011;68530;45.194;9.142;2023-03-12T00:31:12;3.90;;;2.00;;
79130;SDS011;68530;45.194;9.142;2023-03-12T00:33:38;4.28;;;2.33;;
79130;SDS011;68530;45.194;9.142;2023-03-12T00:36:03;6.40;;;2.83;;
79130;SDS011;68530;45.194;9.142;2023-03-12T00:38:29;4.20;;;2.42;;
79130;SDS011;68530;45.194;9.142;2023-03-12T00:40:54;5.43;;;2.50;;
79130;SDS011;68530;45.194;9.142;2023-03-12T00:43:19;5.23;;;2.60;;
79130;SDS011;68530;45.194;9.142;2023-03-12T00:45:44;5.30;;;2.50;;
79130;SDS011;68530;45.194;9.142;2023-03-12T00:48:09;4.60;;;2.63;;
79130;SDS011;68530;45.194;9.142;2023-03-12T00:50:35;4.73;;;2.80;;
79130;SDS011;68530;45.194;9.142;2023-03-12T00:53:00;5.43;;;3.00;;
79130;SDS011;68530;45.194;9.142;2023-03-12T00:55:25;5.47;;;2.80;;
79130;SDS011;68530;45.194;9.142;2023-03-12T00:57:50;4.60;;;2.92;;
79130;SDS011;68530;45.194;9.142;2023-03-12T01:00:16;8.87;;;3.67;;
79130;SDS011;68530;45.194;9.142;2023-03-12T01:02:41;5.70;;;3.25;;
79130;SDS011;68530;45.194;9.142;2023-03-12T01:05:07;5.87;;;3.77;;
79130;SDS011;68530;45.194;9.142;2023-03-12T01:07:33;6.03;;;3.33;;
79130;SDS011;68530;45.194;9.142;2023-03-12T01:09:59;8.50;;;3.28;;
79130;SDS011;68530;45.194;9.142;2023-03-12T01:12:24;7.03;;;3.97;;
79130;SDS011;68530;45.194;9.142;2023-03-12T01:14:49;7.37;;;3.53;;
79130;SDS011;68530;45.194;9.142;2023-03-12T01:17:14;5.63;;;3.47;;
79130;SDS011;68530;45.194;9.142;2023-03-12T01:19:40;4.67;;;3.27;;
79130;SDS011;68530;45.194;9.142;2023-03-12T01:22:05;6.47;;;4.13;;
79130;SDS011;68530;45.194;9.142;2023-03-12T01:24:30;6.33;;;3.80;;
79130;SDS011;68530;45.194;9.142;2023-03-12T01:26:55;7.77;;;4.00;;
79130;SDS011;68530;45.194;9.142;2023-03-12T01:29:21;10.00;;;4.40;;
79130;SDS011;68530;45.194;9.142;2023-03-12T01:31:46;8.10;;;4.00;;
79130;SDS011;68530;45.194;9.142;2023-03-12T01:34:12;6.63;;;4.22;;
79130;SDS011;68530;45.194;9.142;2023-03-12T01:36:37;6.27;;;4.13;;
79130;SDS011;68530;45.194;9.142;2023-03-12T01:39:02;6.90;;;4.13;;
79130;SDS011;68530;45.194;9.142;2023-03-12T01:41:28;7.60;;;4.28;;
79130;SDS011;68530;45.194;9.142;2023-03-12T01:43:56;6.95;;;4.22;;
79130;SDS011;68530;45.194;9.142;2023-03-12T01:49:09;8.13;;;4.70;;
79130;SDS011;68530;45.194;9.142;2023-03-12T01:51:38;7.80;;;4.07;;
79130;SDS011;68530;45.194;9.142;2023-03-12T01:54:06;8.35;;;4.45;;
79130;SDS011;68530;45.194;9.142;2023-03-12T01:56:33;7.88;;;4.53;;
79130;SDS011;68530;45.194;9.142;2023-03-12T01:59:02;7.68;;;4.43;;
79130;SDS011;68530;45.194;9.142;2023-03-12T02:01:27;6.50;;;4.72;;
79130;SDS011;68530;45.194;9.142;2023-03-12T02:03:53;7.15;;;4.78;;
79130;SDS011;68530;45.194;9.142;2023-03-12T02:06:24;8.40;;;5.32;;
79130;SDS011;68530;45.194;9.142;2023-03-12T02:08:50;7.50;;;4.47;;
79130;SDS011;68530;45.194;9.142;2023-03-12T02:11:16;10.07;;;4.85;;
79130;SDS011;68530;45.194;9.142;2023-03-12T02:13:41;7.23;;;4.63;;
79130;SDS011;68530;45.194;9.142;2023-03-12T02:16:06;8.03;;;5.17;;
79130;SDS011;68530;45.194;9.142;2023-03-12T02:18:32;6.35;;;4.18;;
79130;SDS011;68530;45.194;9.142;2023-03-12T02:23:46;9.02;;;4.65;;
79130;SDS011;68530;45.194;9.142;2023-03-12T02:26:16;7.20;;;4.75;;
79130;SDS011;68530;45.194;9.142;2023-03-12T02:28:41;7.57;;;4.80;;
79130;SDS011;68530;45.194;9.142;2023-03-12T02:31:08;8.30;;;4.70;;
79130;SDS011;68530;45.194;9.142;2023-03-12T02:33:34;7.68;;;4.47;;
79130;SDS011;68530;45.194;9.142;2023-03-12T02:35:59;8.73;;;5.20;;
79130;SDS011;68530;45.194;9.142;2023-03-12T02:40:53;8.65;;;4.78;;
79130;SDS011;68530;45.194;9.142;2023-03-12T02:43:20;7.85;;;4.38;;
79130;SDS011;68530;45.194;9.142;2023-03-12T02:45:45;8.07;;;4.82;;
79130;SDS011;68530;45.194;9.142;2023-03-12T02:48:11;8.50;;;4.53;;
79130;SDS011;68530;45.194;9.142;2023-03-12T02:50:36;6.43;;;4.07;;
79130;SDS011;68530;45.194;9.142;2023-03-12T02:53:01;7.17;;;4.50;;
79130;SDS011;68530;45.194;9.142;2023-03-12T02:55:27;7.43;;;4.60;;
79130;SDS011;68530;45.194;9.142;2023-03-12T02:57:52;6.23;;;4.23;;
79130;SDS011;68530;45.194;9.142;2023-03-12T03:00:17;6.73;;;4.27;;
79130;SDS011;68530;45.194;9.142;2023-03-12T03:02:43;8.55;;;4.55;;
79130;SDS011;68530;45.194;9.142;2023-03-12T03:05:09;7.90;;;4.67;;
79130;SDS011;68530;45.194;9.142;2023-03-12T03:07:34;7.63;;;4.65;;
79130;SDS011;68530;45.194;9.142;2023-03-12T03:09:59;8.80;;;4.47;;
79130;SDS011;68530;45.194;9.142;2023-03-12T03:12:28;8.95;;;5.10;;
79130;SDS011;68530;45.194;9.142;2023-03-12T03:14:53;7.85;;;4.65;;
79130;SDS011;68530;45.194;9.142;2023-03-12T03:17:19;6.87;;;4.20;;
79130;SDS011;68530;45.194;9.142;2023-03-12T03:19:47;8.65;;;4.70;;
79130;SDS011;68530;45.194;9.142;2023-03-12T03:22:12;7.53;;;4.40;;
79130;SDS011;68530;45.194;9.142;2023-03-12T03:24:37;7.20;;;4.37;;
79130;SDS011;68530;45.194;9.142;2023-03-12T03:27:02;8.77;;;4.43;;
79130;SDS011;68530;45.194;9.142;2023-03-12T03:29:28;7.67;;;4.53;;
79130;SDS011;68530;45.194;9.142;2023-03-12T03:31:53;6.87;;;3.87;;
79130;SDS011;68530;45.194;9.142;2023-03-12T03:34:18;7.60;;;4.17;;
79130;SDS011;68530;45.194;9.142;2023-03-12T03:36:43;8.13;;;4.23;;
79130;SDS011;68530;45.194;9.142;2023-03-12T03:39:09;7.93;;;4.40;;
79130;SDS011;68530;45.194;9.142;2023-03-12T03:41:34;8.47;;;4.57;;
79130;SDS011;68530;45.194;9.142;2023-03-12T03:43:59;8.47;;;4.60;;
79130;SDS011;68530;45.194;9.142;2023-03-12T03:46:24;6.67;;;4.27;;
79130;SDS011;68530;45.194;9.142;2023-03-12T03:48:50;7.22;;;4.07;;
79130;SDS011;68530;45.194;9.142;2023-03-12T03:51:15;6.47;;;3.92;;
79130;SDS011;68530;45.194;9.142;2023-03-12T03:53:40;7.03;;;4.20;;
79130;SDS011;68530;45.194;9.142;2023-03-12T03:56:06;6.27;;;4.13;;
79130;SDS011;68530;45.194;9.142;2023-03-12T03:58:32;6.25;;;4.00;;
79130;SDS011;68530;45.194;9.142;2023-03-12T04:00:57;7.77;;;4.27;;
79130;SDS011;68530;45.194;9.142;2023-03-12T04:03:23;7.17;;;3.83;;
79130;SDS011;68530;45.194;9.142;2023-03-12T04:06:09;6.83;;;3.70;;
79130;SDS011;68530;45.194;9.142;2023-03-12T04:08:34;6.80;;;4.35;;
79130;SDS011;68530;45.194;9.142;2023-03-12T04:11:07;6.47;;;3.97;;
79130;SDS011;68530;45.194;9.142;2023-03-12T04:13:33;7.00;;;3.78;;
79130;SDS011;68530;45.194;9.142;2023-03-12T04:15:58;7.53;;;4.00;;
79130;SDS011;68530;45.194;9.142;2023-03-12T04:18:23;7.15;;;3.95;;
79130;SDS011;68530;45.194;9.142;2023-03-12T04:20:49;6.07;;;4.00;;
79130;SDS011;68530;45.194;9.142;2023-03-12T04:23:14;6.28;;;4.15;;
79130;SDS011;68530;45.194;9.142;2023-03-12T04:25:39;5.90;;;4.10;;
79130;SDS011;68530;45.194;9.142;2023-03-12T04:28:04;7.10;;;3.90;;
79130;SDS011;68530;45.194;9.142;2023-03-12T04:30:30;8.13;;;4.22;;
79130;SDS011;68530;45.194;9.142;2023-03-12T04:32:55;7.93;;;4.50;;
79130;SDS011;68530;45.194;9.142;2023-03-12T04:35:20;7.07;;;3.93;;
79130;SDS011;68530;45.194;9.142;2023-03-12T04:37:45;6.50;;;4.00;;
79130;SDS011;68530;45.194;9.142;2023-03-12T04:40:11;7.17;;;4.13;;
79130;SDS011;68530;45.194;9.142;2023-03-12T04:42:37;7.35;;;4.00;;
79130;SDS011;68530;45.194;9.142;2023-03-12T04:45:03;8.27;;;4.47;;
79130;SDS011;68530;45.194;9.142;2023-03-12T04:47:29;7.28;;;4.05;;
79130;SDS011;68530;45.194;9.142;2023-03-12T04:49:55;7.60;;;3.95;;
79130;SDS011;68530;45.194;9.142;2023-03-12T04:52:20;6.28;;;3.97;;
79130;SDS011;68530;45.194;9.142;2023-03-12T04:54:45;7.13;;;3.88;;
79130;SDS011;68530;45.194;9.142;2023-03-12T04:57:11;7.30;;;4.13;;
79130;SDS011;68530;45.194;9.142;2023-03-12T04:59:36;5.73;;;4.13;;
79130;SDS011;68530;45.194;9.142;2023-03-12T05:02:01;6.40;;;4.10;;
79130;SDS011;68530;45.194;9.142;2023-03-12T05:04:26;7.43;;;4.20;;
79130;SDS011;68530;45.194;9.142;2023-03-12T05:06:51;6.37;;;4.67;;
79130;SDS011;68530;45.194;9.142;2023-03-12T05:09:17;7.03;;;3.60;;
79130;SDS011;68530;45.194;9.142;2023-03-12T05:11:42;7.17;;;4.07;;
79130;SDS011;68530;45.194;9.142;2023-03-12T05:14:08;6.70;;;3.83;;
79130;SDS011;68530;45.194;9.142;2023-03-12T05:16:33;7.28;;;4.07;;
79130;SDS011;68530;45.194;9.142;2023-03-12T05:18:58;6.63;;;3.97;;
79130;SDS011;68530;45.194;9.142;2023-03-12T05:21:24;6.63;;;3.90;;
79130;SDS011;68530;45.194;9.142;2023-03-12T05:23:49;7.20;;;3.93;;
79130;SDS011;68530;45.194;9.142;2023-03-12T05:26:15;7.40;;;4.37;;
79130;SDS011;68530;45.194;9.142;2023-03-12T05:28:41;6.72;;;3.65;;
79130;SDS011;68530;45.194;9.142;2023-03-12T05:31:07;6.57;;;3.97;;
79130;SDS011;68530;45.194;9.142;2023-03-12T05:33:33;6.30;;;3.67;;
79130;SDS011;68530;45.194;9.142;2023-03-12T05:35:58;9.17;;;3.70;;
79130;SDS011;68530;45.194;9.142;2023-03-12T05:38:23;7.90;;;3.77;;
79130;SDS011;68530;45.194;9.142;2023-03-12T05:40:55;7.67;;;4.43;;
79130;SDS011;68530;45.194;9.142;2023-03-12T05:43:21;9.10;;;4.60;;
79130;SDS011;68530;45.194;9.142;2023-03-12T05:45:46;7.93;;;3.80;;
79130;SDS011;68530;45.194;9.142;2023-03-12T05:48:11;8.05;;;4.28;;
79130;SDS011;68530;45.194;9.142;2023-03-12T05:50:37;6.22;;;4.05;;
79130;SDS011;68530;45.194;9.142;2023-03-12T05:53:02;5.77;;;3.90;;
79130;SDS011;68530;45.194;9.142;2023-03-12T05:55:27;8.03;;;4.47;;
79130;SDS011;68530;45.194;9.142;2023-03-12T05:57:53;6.73;;;4.17;;
79130;SDS011;68530;45.194;9.142;2023-03-12T06:00:18;7.07;;;3.77;;
79130;SDS011;68530;45.194;9.142;2023-03-12T06:02:43;7.47;;;3.70;;
79130;SDS011;68530;45.194;9.142;2023-03-12T06:05:09;8.13;;;4.10;;
79130;SDS011;68530;45.194;9.142;2023-03-12T06:07:35;7.60;;;4.25;;
79130;SDS011;68530;45.194;9.142;2023-03-12T06:10:00;5.20;;;3.90;;
79130;SDS011;68530;45.194;9.142;2023-03-12T06:12:25;6.97;;;4.28;;
79130;SDS011;68530;45.194;9.142;2023-03-12T06:14:50;7.23;;;4.13;;
79130;SDS011;68530;45.194;9.142;2023-03-12T06:17:16;6.87;;;3.97;;
79130;SDS011;68530;45.194;9.142;2023-03-12T06:19:41;6.13;;;3.50;;
79130;SDS011;68530;45.194;9.142;2023-03-12T06:22:07;8.00;;;5.07;;
79130;SDS011;68530;45.194;9.142;2023-03-12T06:24:33;9.37;;;5.60;;
79130;SDS011;68530;45.194;9.142;2023-03-12T06:26:58;10.20;;;6.00;;
79130;SDS011;68530;45.194;9.142;2023-03-12T06:29:23;10.23;;;5.77;;
79130;SDS011;68530;45.194;9.142;2023-03-12T06:31:48;11.17;;;5.50;;
79130;SDS011;68530;45.194;9.142;2023-03-12T06:34:16;9.82;;;5.03;;
79130;SDS011;68530;45.194;9.142;2023-03-12T06:36:41;10.13;;;5.88;;
79130;SDS011;68530;45.194;9.142;2023-03-12T06:39:06;10.57;;;5.80;;
79130;SDS011;68530;45.194;9.142;2023-03-12T06:41:33;10.88;;;5.97;;
79130;SDS011;68530;45.194;9.142;2023-03-12T06:43:58;8.23;;;5.17;;
79130;SDS011;68530;45.194;9.142;2023-03-12T06:46:24;6.80;;;4.10;;
79130;SDS011;68530;45.194;9.142;2023-03-12T06:48:49;8.50;;;3.97;;
79130;SDS011;68530;45.194;9.142;2023-03-12T06:51:15;5.97;;;4.17;;
79130;SDS011;68530;45.194;9.142;2023-03-12T06:53:40;7.85;;;4.30;;
79130;SDS011;68530;45.194;9.142;2023-03-12T06:56:06;7.00;;;3.90;;
79130;SDS011;68530;45.194;9.142;2023-03-12T06:58:31;8.07;;;3.58;;
79130;SDS011;68530;45.194;9.142;2023-03-12T07:00:57;9.48;;;3.90;;
79130;SDS011;68530;45.194;9.142;2023-03-12T07:03:22;6.93;;;3.73;;
79130;SDS011;68530;45.194;9.142;2023-03-12T07:05:48;6.95;;;3.90;;
79130;SDS011;68530;45.194;9.142;2023-03-12T07:08:14;7.28;;;3.83;;
79130;SDS011;68530;45.194;9.142;2023-03-12T07:10:39;8.23;;;3.67;;
79130;SDS011;68530;45.194;9.142;2023-03-12T07:13:05;6.85;;;3.45;;
79130;SDS011;68530;45.194;9.142;2023-03-12T07:15:30;6.18;;;3.70;;
79130;SDS011;68530;45.194;9.142;2023-03-12T07:17:59;7.07;;;3.77;;
79130;SDS011;68530;45.194;9.142;2023-03-12T07:20:25;5.35;;;3.25;;
79130;SDS011;68530;45.194;9.142;2023-03-12T07:22:50;6.23;;;3.70;;
79130;SDS011;68530;45.194;9.142;2023-03-12T07:25:15;6.07;;;3.73;;
79130;SDS011;68530;45.194;9.142;2023-03-12T07:27:40;15.47;;;4.77;;
79130;SDS011;68530;45.194;9.142;2023-03-12T07:30:06;10.47;;;3.93;;
79130;SDS011;68530;45.194;9.142;2023-03-12T07:32:31;6.60;;;3.50;;
79130;SDS011;68530;45.194;9.142;2023-03-12T07:34:57;6.68;;;3.50;;
79130;SDS011;68530;45.194;9.142;2023-03-12T07:37:22;7.45;;;3.65;;
79130;SDS011;68530;45.194;9.142;2023-03-12T07:39:47;6.70;;;3.77;;
79130;SDS011;68530;45.194;9.142;2023-03-12T07:42:16;6.25;;;3.58;;
79130;SDS011;68530;45.194;9.142;2023-03-12T07:44:41;6.32;;;3.55;;
79130;SDS011;68530;45.194;9.142;2023-03-12T07:47:06;7.97;;;3.80;;
79130;SDS011;68530;45.194;9.142;2023-03-12T07:49:31;9.47;;;5.53;;
79130;SDS011;68530;45.194;9.142;2023-03-12T07:51:57;7.20;;;4.90;;
79130;SDS011;68530;45.194;9.142;2023-03-12T07:54:23;7.78;;;4.57;;
79130;SDS011;68530;45.194;9.142;2023-03-12T07:56:52;9.48;;;4.35;;
79130;SDS011;68530;45.194;9.142;2023-03-12T07:59:18;7.17;;;4.00;;
79130;SDS011;68530;45.194;9.142;2023-03-12T08:01:43;8.88;;;4.18;;
79130;SDS011;68530;45.194;9.142;2023-03-12T08:04:08;6.53;;;3.30;;
79130;SDS011;68530;45.194;9.142;2023-03-12T08:06:34;6.90;;;4.10;;
79130;SDS011;68530;45.194;9.142;2023-03-12T08:08:59;7.07;;;3.27;;
79130;SDS011;68530;45.194;9.142;2023-03-12T08:11:25;6.68;;;4.20;;
79130;SDS011;68530;45.194;9.142;2023-03-12T08:13:50;5.97;;;3.67;;
79130;SDS011;68530;45.194;9.142;2023-03-12T08:16:15;6.03;;;3.77;;
79130;SDS011;68530;45.194;9.142;2023-03-12T08:18:40;7.78;;;3.80;;
79130;SDS011;68530;45.194;9.142;2023-03-12T08:21:07;6.05;;;3.92;;
79130;SDS011;68530;45.194;9.142;2023-03-12T08:23:32;7.82;;;3.70;;
79130;SDS011;68530;45.194;9.142;2023-03-12T08:25:57;7.20;;;3.53;;
79130;SDS011;68530;45.194;9.142;2023-03-12T08:28:22;6.57;;;4.10;;
79130;SDS011;68530;45.194;9.142;2023-03-12T08:30:49;11.50;;;5.32;;
79130;SDS011;68530;45.194;9.142;2023-03-12T08:33:15;8.15;;;4.40;;
79130;SDS011;68530;45.194;9.142;2023-03-12T08:35:40;7.43;;;3.80;;
79130;SDS011;68530;45.194;9.142;2023-03-12T08:38:05;6.27;;;3.90;;
79130;SDS011;68530;45.194;9.142;2023-03-12T08:40:30;7.67;;;4.23;;
79130;SDS011;68530;45.194;9.142;2023-03-12T08:42:56;7.20;;;3.90;;
79130;SDS011;68530;45.194;9.142;2023-03-12T08:45:21;10.20;;;4.40;;
79130;SDS011;68530;45.194;9.142;2023-03-12T08:47:46;6.93;;;3.90;;
79130;SDS011;68530;45.194;9.142;2023-03-12T08:50:12;9.37;;;3.87;;
79130;SDS011;68530;45.194;9.142;2023-03-12T08:52:38;7.93;;;3.92;;
79130;SDS011;68530;45.194;9.142;2023-03-12T08:55:03;7.40;;;3.60;;
79130;SDS011;68530;45.194;9.142;2023-03-12T08:57:30;8.45;;;4.05;;
79130;SDS011;68530;45.194;9.142;2023-03-12T08:59:55;6.93;;;3.90;;
79130;SDS011;68530;45.194;9.142;2023-03-12T09:02:20;7.63;;;4.13;;
79130;SDS011;68530;45.194;9.142;2023-03-12T09:04:49;6.17;;;3.47;;
79130;SDS011;68530;45.194;9.142;2023-03-12T09:07:14;7.18;;;3.40;;
79130;SDS011;68530;45.194;9.142;2023-03-12T09:09:42;9.13;;;3.67;;
79130;SDS011;68530;45.194;9.142;2023-03-12T09:12:07;9.07;;;3.50;;
79130;SDS011;68530;45.194;9.142;2023-03-12T09:14:32;6.70;;;3.75;;
79130;SDS011;68530;45.194;9.142;2023-03-12T09:16:58;6.87;;;4.00;;
79130;SDS011;68530;45.194;9.142;2023-03-12T09:19:23;5.73;;;3.50;;
79130;SDS011;68530;45.194;9.142;2023-03-12T09:21:48;5.80;;;3.50;;
79130;SDS011;68530;45.194;9.142;2023-03-12T09:24:13;6.03;;;3.20;;
79130;SDS011;68530;45.194;9.142;2023-03-12T09:26:39;8.50;;;3.90;;
79130;SDS011;68530;45.194;9.142;2023-03-12T09:29:04;5.47;;;2.90;;
79130;SDS011;68530;45.194;9.142;2023-03-12T09:31:29;6.13;;;3.57;;
79130;SDS011;68530;45.194;9.142;2023-03-12T09:33:55;5.97;;;3.50;;
79130;SDS011;68530;45.194;9.142;2023-03-12T09:36:20;11.13;;;3.83;;
79130;SDS011;68530;45.194;9.142;2023-03-12T09:38:45;7.83;;;3.60;;
79130;SDS011;68530;45.194;9.142;2023-03-12T09:41:14;9.97;;;3.33;;
79130;SDS011;68530;45.194;9.142;2023-03-12T09:43:41;6.63;;;3.30;;
79130;SDS011;68530;45.194;9.142;2023-03-12T09:46:14;7.32;;;3.30;;
79130;SDS011;68530;45.194;9.142;2023-03-12T09:48:41;7.07;;;3.33;;
79130;SDS011;68530;45.194;9.142;2023-03-12T09:53:45;5.03;;;3.22;;
79130;SDS011;68530;45.194;9.142;2023-03-12T09:56:13;5.70;;;3.08;;
79130;SDS011;68530;45.194;9.142;2023-03-12T09:58:39;8.73;;;3.50;;
79130;SDS011;68530;45.194;9.142;2023-03-12T10:01:17;6.55;;;3.58;;
79130;SDS011;68530;45.194;9.142;2023-03-12T10:06:12;8.30;;;3.58;;
79130;SDS011;68530;45.194;9.142;2023-03-12T10:08:55;10.65;;;3.40;;
79130;SDS011;68530;45.194;9.142;2023-03-12T10:11:32;8.45;;;3.50;;
79130;SDS011;68530;45.194;9.142;2023-03-12T10:16:38;9.37;;;3.70;;
79130;SDS011;68530;45.194;9.142;2023-03-12T10:19:13;9.63;;;3.63;;
79130;SDS011;68530;45.194;9.142;2023-03-12T10:29:45;8.33;;;3.30;;
79130;SDS011;68530;45.194;9.142;2023-03-12T10:34:45;6.15;;;3.05;;
79130;SDS011;68530;45.194;9.142;2023-03-12T10:40:13;6.63;;;3.15;;
79130;SDS011;68530;45.194;9.142;2023-03-12T10:42:38;5.35;;;3.05;;
79130;SDS011;68530;45.194;9.142;2023-03-12T10:47:51;12.77;;;3.65;;
79130;SDS011;68530;45.194;9.142;2023-03-12T10:50:25;9.48;;;3.60;;
79130;SDS011;68530;45.194;9.142;2023-03-12T10:52:51;7.20;;;3.38;;
79130;SDS011;68530;45.194;9.142;2023-03-12T10:55:24;7.28;;;3.25;;
79130;SDS011;68530;45.194;9.142;2023-03-12T10:57:50;7.53;;;2.90;;
79130;SDS011;68530;45.194;9.142;2023-03-12T11:00:21;6.75;;;2.90;;
79130;SDS011;68530;45.194;9.142;2023-03-12T11:02:54;6.57;;;3.00;;
79130;SDS011;68530;45.194;9.142;2023-03-12T11:05:27;8.27;;;3.03;;
79130;SDS011;68530;45.194;9.142;2023-03-12T11:07:54;6.55;;;3.45;;
79130;SDS011;68530;45.194;9.142;2023-03-12T11:10:21;8.25;;;2.65;;
79130;SDS011;68530;45.194;9.142;2023-03-12T11:12:56;8.25;;;3.22;;
79130;SDS011;68530;45.194;9.142;2023-03-12T11:15:26;12.38;;;4.20;;
79130;SDS011;68530;45.194;9.142;2023-03-12T11:18:04;11.15;;;4.47;;
79130;SDS011;68530;45.194;9.142;2023-03-12T11:20:38;8.93;;;4.20;;
79130;SDS011;68530;45.194;9.142;2023-03-12T11:23:13;16.87;;;4.73;;
79130;SDS011;68530;45.194;9.142;2023-03-12T11:25:38;10.68;;;4.47;;
79130;SDS011;68530;45.194;9.142;2023-03-12T11:28:04;13.30;;;4.57;;
79130;SDS011;68530;45.194;9.142;2023-03-12T11:30:37;11.65;;;3.70;;
79130;SDS011;68530;45.194;9.142;2023-03-12T11:33:03;9.75;;;3.80;;
79130;SDS011;68530;45.194;9.142;2023-03-12T11:50:52;9.60;;;3.70;;
79130;SDS011;68530;45.194;9.142;2023-03-12T11:56:19;9.60;;;4.03;;
79130;SDS011;68530;45.194;9.142;2023-03-12T12:01:15;10.57;;;3.80;;
79130;SDS011;68530;45.194;9.142;2023-03-12T12:03:54;10.15;;;3.80;;
79130;SDS011;68530;45.194;9.142;2023-03-12T12:11:41;12.80;;;3.60;;
79130;SDS011;68530;45.194;9.142;2023-03-12T12:16:54;7.95;;;3.95;;
79130;SDS011;68530;45.194;9.142;2023-03-12T12:27:17;11.90;;;4.63;;
79130;SDS011;68530;45.194;9.142;2023-03-12T12:42:41;6.93;;;3.47;;
79130;SDS011;68530;45.194;9.142;2023-03-12T12:45:10;11.70;;;3.15;;
79130;SDS011;68530;45.194;9.142;2023-03-12T12:47:45;6.93;;;3.22;;
79130;SDS011;68530;45.194;9.142;2023-03-12T12:50:13;7.78;;;3.13;;
79130;SDS011;68530;45.194;9.142;2023-03-12T12:52:40;7.70;;;2.90;;
79130;SDS011;68530;45.194;9.142;2023-03-12T12:55:09;8.98;;;3.50;;
79130;SDS011;68530;45.194;9.142;2023-03-12T12:57:48;7.55;;;3.05;;
79130;SDS011;68530;45.194;9.142;2023-03-12T13:00:20;6.70;;;3.03;;
79130;SDS011;68530;45.194;9.142;2023-03-12T13:02:47;7.20;;;3.17;;
79130;SDS011;68530;45.194;9.142;2023-03-12T13:07:56;7.63;;;3.20;;
79130;SDS011;68530;45.194;9.142;2023-03-12T13:10:40;7.93;;;3.07;;
79130;SDS011;68530;45.194;9.142;2023-03-12T13:15:32;8.50;;;3.00;;
79130;SDS011;68530;45.194;9.142;2023-03-12T13:20:26;7.40;;;3.33;;
79130;SDS011;68530;45.194;9.142;2023-03-12T13:23:02;8.32;;;3.50;;
79130;SDS011;68530;45.194;9.142;2023-03-12T13:25:40;9.70;;;3.42;;
79130;SDS011;68530;45.194;9.142;2023-03-12T13:30:52;11.38;;;2.85;;
79130;SDS011;68530;45.194;9.142;2023-03-12T13:33:18;10.82;;;2.92;;
79130;SDS011;68530;45.194;9.142;2023-03-12T13:36:28;9.40;;;3.10;;
79130;SDS011;68530;45.194;9.142;2023-03-12T13:38:35;9.10;;;3.10;;
79130;SDS011;68530;45.194;9.142;2023-03-12T13:41:02;8.27;;;3.33;;
79130;SDS011;68530;45.194;9.142;2023-03-12T13:43:32;8.73;;;3.05;;
79130;SDS011;68530;45.194;9.142;2023-03-12T13:46:20;11.20;;;3.70;;
79130;SDS011;68530;45.194;9.142;2023-03-12T13:48:46;8.20;;;4.05;;
79130;SDS011;68530;45.194;9.142;2023-03-12T13:51:17;8.68;;;3.67;;
79130;SDS011;68530;45.194;9.142;2023-03-12T13:53:45;8.77;;;3.80;;
79130;SDS011;68530;45.194;9.142;2023-03-12T13:56:13;9.20;;;3.45;;
79130;SDS011;68530;45.194;9.142;2023-03-12T13:58:43;8.90;;;3.40;;
79130;SDS011;68530;45.194;9.142;2023-03-12T14:01:17;11.80;;;3.70;;
79130;SDS011;68530;45.194;9.142;2023-03-12T14:03:45;11.18;;;3.20;;
79130;SDS011;68530;45.194;9.142;2023-03-12T14:06:15;9.15;;;2.85;;
79130;SDS011;68530;45.194;9.142;2023-03-12T14:13:52;7.85;;;2.85;;
79130;SDS011;68530;45.194;9.142;2023-03-12T14:16:26;8.90;;;2.55;;
79130;SDS011;68530;45.194;9.142;2023-03-12T14:18:54;5.95;;;2.85;;
79130;SDS011;68530;45.194;9.142;2023-03-12T14:21:19;7.93;;;2.70;;
79130;SDS011;68530;45.194;9.142;2023-03-12T14:23:50;6.55;;;2.60;;
79130;SDS011;68530;45.194;9.142;2023-03-12T14:26:21;6.88;;;2.70;;
79130;SDS011;68530;45.194;9.142;2023-03-12T14:28:51;7.20;;;2.30;;
79130;SDS011;68530;45.194;9.142;2023-03-12T14:31:19;10.23;;;3.40;;
79130;SDS011;68530;45.194;9.142;2023-03-12T14:33:50;12.00;;;2.90;;
79130;SDS011;68530;45.194;9.142;2023-03-12T14:38:43;9.68;;;2.47;;
79130;SDS011;68530;45.194;9.142;2023-03-12T14:43:38;8.13;;;2.30;;
79130;SDS011;68530;45.194;9.142;2023-03-12T14:46:11;6.88;;;2.47;;
79130;SDS011;68530;45.194;9.142;2023-03-12T14:48:37;6.88;;;2.40;;
79130;SDS011;68530;45.194;9.142;2023-03-12T14:51:03;7.23;;;2.27;;
79130;SDS011;68530;45.194;9.142;2023-03-12T14:53:37;5.95;;;2.28;;
79130;SDS011;68530;45.194;9.142;2023-03-12T14:56:05;6.63;;;2.28;;
79130;SDS011;68530;45.194;9.142;2023-03-12T14:58:31;6.32;;;2.63;;
79130;SDS011;68530;45.194;9.142;2023-03-12T15:01:04;6.78;;;2.92;;
79130;SDS011;68530;45.194;9.142;2023-03-12T15:03:29;7.60;;;2.60;;
79130;SDS011;68530;45.194;9.142;2023-03-12T15:05:56;6.07;;;2.20;;
79130;SDS011;68530;45.194;9.142;2023-03-12T15:08:22;6.60;;;2.42;;
79130;SDS011;68530;45.194;9.142;2023-03-12T15:10:49;5.53;;;2.35;;
79130;SDS011;68530;45.194;9.142;2023-03-12T15:13:15;6.80;;;2.40;;
79130;SDS011;68530;45.194;9.142;2023-03-12T15:15:41;10.35;;;2.35;;
79130;SDS011;68530;45.194;9.142;2023-03-12T15:18:10;21.25;;;4.60;;
79130;SDS011;68530;45.194;9.142;2023-03-12T15:20:37;12.73;;;3.88;;
79130;SDS011;68530;45.194;9.142;2023-03-12T15:23:03;11.05;;;4.00;;
79130;SDS011;68530;45.194;9.142;2023-03-12T15:25:30;8.02;;;2.75;;
79130;SDS011;68530;45.194;9.142;2023-03-12T15:30:34;9.63;;;3.05;;
79130;SDS011;68530;45.194;9.142;2023-03-12T15:33:04;8.30;;;3.03;;
79130;SDS011;68530;45.194;9.142;2023-03-12T15:35:29;7.78;;;2.42;;
79130;SDS011;68530;45.194;9.142;2023-03-12T15:37:54;9.40;;;2.80;;
79130;SDS011;68530;45.194;9.142;2023-03-12T15:40:21;13.60;;;3.25;;
79130;SDS011;68530;45.194;9.142;2023-03-12T15:42:47;9.20;;;3.10;;
79130;SDS011;68530;45.194;9.142;2023-03-12T15:45:17;9.02;;;3.10;;
79130;SDS011;68530;45.194;9.142;2023-03-12T15:50:18;8.98;;;2.83;;
79130;SDS011;68530;45.194;9.142;2023-03-12T15:55:42;7.75;;;3.00;;
79130;SDS011;68530;45.194;9.142;2023-03-12T15:58:34;6.53;;;2.33;;
79130;SDS011;68530;45.194;9.142;2023-03-12T16:03:30;7.32;;;2.55;;
79130;SDS011;68530;45.194;9.142;2023-03-12T16:05:55;6.83;;;2.63;;
79130;SDS011;68530;45.194;9.142;2023-03-12T16:08:26;6.20;;;2.90;;
79130;SDS011;68530;45.194;9.142;2023-03-12T16:10:53;7.38;;;2.60;;
79130;SDS011;68530;45.194;9.142;2023-03-12T16:13:20;6.43;;;2.58;;
79130;SDS011;68530;45.194;9.142;2023-03-12T16:15:46;4.97;;;2.47;;
79130;SDS011;68530;45.194;9.142;2023-03-12T16:18:13;9.27;;;2.95;;
79130;SDS011;68530;45.194;9.142;2023-03-12T16:20:38;7.85;;;2.55;;
79130;SDS011;68530;45.194;9.142;2023-03-12T16:23:03;6.68;;;2.60;;
79130;SDS011;68530;45.194;9.142;2023-03-12T16:25:29;6.30;;;2.37;;
79130;SDS011;68530;45.194;9.142;2023-03-12T16:27:55;5.97;;;2.60;;
79130;SDS011;68530;45.194;9.142;2023-03-12T16:30:33;5.95;;;2.35;;
79130;SDS011;68530;45.194;9.142;2023-03-12T16:32:59;7.00;;;2.47;;
79130;SDS011;68530;45.194;9.142;2023-03-12T16:35:25;6.43;;;2.60;;
79130;SDS011;68530;45.194;9.142;2023-03-12T16:37:52;12.43;;;3.35;;